Time;durP1;ratioP1;P1;durP2;ratioP2;P2;SDS_P1;SDS_P2;PMS_P1;PMS_P2;Temp;Humidity;BMP_temperature;BMP_pressure;BME280_temperature;BME280_humidity;BME280_pressure;Samples;Min_cycle;Max_cycle;Signal;HPM_P1;HPM_P2
2023/10/11 00:01:48;;;;;;;;;;;16.50;99.90;;;;;;5015268;28;20284;-95
2023/10/11 00:04:26;;;;;;;;;;;16.50;99.90;;;;;;4988911;28;20011;-95
2023/10/11 00:06:54;;;;;;;;;;;16.40;99.90;;;;;;5020831;28;19916;-93
2023/10/11 00:09:34;;;;;;;;;;;16.50;99.90;;;;;;5002921;28;19947;-94
2023/10/11 00:12:00;;;;;;;;;;;16.50;99.90;;;;;;5002919;28;19921;-94
2023/10/11 00:14:33;;;;;;;;;;;16.50;99.90;;;;;;5017591;28;19921;-93
2023/10/11 00:16:58;;;;;;;;;;;17.30;99.90;;;;;;5012755;28;19916;-93
2023/10/11 00:19:28;;;;;;;;;;;16.50;99.90;;;;;;5019621;28;19924;-96
2023/10/11 00:21:54;;;;;;;;;;;16.50;99.90;;;;;;5003009;28;19923;-96
2023/10/11 00:24:23;;;;;;;;;;;16.50;99.90;;;;;;5018657;28;19921;-93
2023/10/11 00:26:49;;;;;;;;;;;16.50;99.90;;;;;;5018122;28;19964;-92
2023/10/11 00:29:15;;;;;;;;;;;16.50;99.90;;;;;;5018503;28;19923;-94
2023/10/11 00:31:41;;;;;;;;;;;16.50;99.90;;;;;;5001768;28;19972;-94
2023/10/11 00:34:12;;;;;;;;;;;16.50;99.90;;;;;;5019213;28;19921;-94
2023/10/11 00:36:38;;;;;;;;;;;16.50;99.90;;;;;;5004358;28;19917;-95
2023/10/11 00:39:07;;;;;;;;;;;16.50;99.90;;;;;;5004993;28;19967;-95
2023/10/11 00:41:39;;;;;;;;;;;16.50;99.90;;;;;;5010966;28;19917;-94
2023/10/11 00:44:05;;;;;;;;;;;16.50;99.90;;;;;;5018257;28;19963;-95
2023/10/11 00:46:50;;;;;;;;;;;16.60;99.90;;;;;;5018417;28;19917;-93
2023/10/11 00:49:17;;;;;;;;;;;16.60;99.90;;;;;;5018099;28;19917;-95
2023/10/11 00:51:50;;;;;;;;;;;16.60;99.90;;;;;;4998751;28;19917;-95
2023/10/11 00:54:16;;;;;;;;;;;16.30;99.90;;;;;;4999144;28;19932;-92
2023/10/11 00:56:46;;;;;;;;;;;16.60;99.90;;;;;;5011203;28;19921;-95
2023/10/11 00:59:15;;;;;;;;;;;16.60;99.90;;;;;;5018609;28;19916;-94
2023/10/11 01:01:44;;;;;;;;;;;16.60;99.90;;;;;;5000769;28;19921;-93
2023/10/11 01:04:10;;;;;;;;;;;16.60;99.90;;;;;;5016877;28;19964;-92
2023/10/11 01:06:36;;;;;;;;;;;16.60;99.90;;;;;;5018126;28;20363;-94
2023/10/11 01:09:18;;;;;;;;;;;16.60;99.90;;;;;;4990266;28;19917;-94
2023/10/11 01:11:45;;;;;;;;;;;16.60;99.90;;;;;;5016279;28;19917;-92
2023/10/11 01:14:11;;;;;;;;;;;16.60;99.90;;;;;;5033166;28;19921;-93
2023/10/11 01:16:37;;;;;;;;;;;16.60;99.90;;;;;;5000770;28;19917;-90
2023/10/11 01:19:08;;;;;;;;;;;16.60;99.90;;;;;;4998176;28;20003;-93
2023/10/11 01:21:34;;;;;;;;;;;16.60;99.90;;;;;;5012450;28;19918;-93
2023/10/11 01:23:59;;;;;;;;;;;16.60;99.90;;;;;;4993313;28;19918;-94
2023/10/11 01:26:27;;;;;;;;;;;16.40;99.90;;;;;;4995907;28;19925;-93
2023/10/11 01:28:56;;;;;;;;;;;16.60;99.90;;;;;;4983436;28;20281;-90
2023/10/11 01:31:21;;;;;;;;;;;16.60;99.90;;;;;;4997488;28;20284;-92
2023/10/11 01:33:49;;;;;;;;;;;16.60;99.90;;;;;;5009903;28;19924;-92
2023/10/11 01:36:15;;;;;;;;;;;16.60;99.90;;;;;;5016436;28;19960;-90
2023/10/11 01:38:46;;;;;;;;;;;16.60;99.90;;;;;;5016700;28;19975;-94
2023/10/11 01:41:13;;;;;;;;;;;16.60;99.90;;;;;;5015922;28;19979;-94
2023/10/11 01:43:39;;;;;;;;;;;16.60;99.90;;;;;;5016860;28;19917;-93
2023/10/11 01:46:04;;;;;;;;;;;16.60;99.90;;;;;;4996755;28;19923;-92
2023/10/11 01:48:30;;;;;;;;;;;16.50;99.90;;;;;;5029606;28;20379;-94
2023/10/11 01:51:05;;;;;;;;;;;16.60;99.90;;;;;;5019129;28;19940;-94
2023/10/11 01:53:31;;;;;;;;;;;16.60;99.90;;;;;;5017253;28;19971;-96
2023/10/11 01:55:59;;;;;;;;;;;16.60;99.90;;;;;;5015135;28;19921;-95
2023/10/11 01:58:25;;;;;;;;;;;16.60;99.90;;;;;;5000222;28;19924;-92
2023/10/11 02:00:51;;;;;;;;;;;16.60;99.90;;;;;;5001896;28;19920;-93
2023/10/11 02:03:16;;;;;;;;;;;16.60;99.90;;;;;;4999711;28;20013;-93
2023/10/11 02:05:42;;;;;;;;;;;16.60;99.90;;;;;;5016780;28;19917;-91
2023/10/11 02:08:16;;;;;;;;;;;16.60;99.90;;;;;;5016358;28;19928;-93
2023/10/11 02:10:45;;;;;;;;;;;16.60;99.90;;;;;;4995804;28;19947;-96
2023/10/11 02:13:11;;;;;;;;;;;16.80;99.90;;;;;;5012860;28;19923;-92
2023/10/11 02:15:39;;;;;;;;;;;16.60;99.90;;;;;;4997427;28;19921;-94
2023/10/11 02:18:08;;;;;;;;;;;16.60;99.90;;;;;;4983914;28;19925;-92
2023/10/11 02:20:34;;;;;;;;;;;16.60;99.90;;;;;;5008084;28;19918;-92
2023/10/11 02:23:00;;;;;;;;;;;16.60;99.90;;;;;;5015747;28;19928;-94
2023/10/11 02:25:26;;;;;;;;;;;16.60;99.90;;;;;;5016864;28;19919;-94
2023/10/11 02:27:52;;;;;;;;;;;16.60;99.90;;;;;;5034128;28;20370;-96
2023/10/11 02:30:24;;;;;;;;;;;16.60;99.90;;;;;;4998767;28;19925;-93
2023/10/11 02:32:50;;;;;;;;;;;16.50;99.90;;;;;;5011664;28;20051;-95
2023/10/11 02:35:18;;;;;;;;;;;16.60;99.90;;;;;;4995886;28;19922;-94
2023/10/11 02:37:45;;;;;;;;;;;16.60;99.90;;;;;;5013112;28;19925;-93
2023/10/11 02:40:22;;;;;;;;;;;16.50;99.90;;;;;;4997675;28;20008;-94
2023/10/11 02:42:49;;;;;;;;;;;16.50;99.90;;;;;;5010870;28;19917;-95
2023/10/11 02:45:19;;;;;;;;;;;16.50;99.90;;;;;;5000046;28;19917;-94
2023/10/11 02:47:48;;;;;;;;;;;16.50;99.90;;;;;;5016438;28;20480;-94
2023/10/11 02:50:14;;;;;;;;;;;16.50;99.90;;;;;;5014912;28;19924;-93
2023/10/11 02:52:41;;;;;;;;;;;16.50;99.90;;;;;;5000077;28;19921;-95
2023/10/11 02:55:20;;;;;;;;;;;16.40;99.90;;;;;;5015954;28;19928;-94
2023/10/11 02:57:46;;;;;;;;;;;16.40;99.90;;;;;;5022469;28;19923;-93
2023/10/11 03:00:21;;;;;;;;;;;16.40;99.90;;;;;;5010650;28;19917;-96
2023/10/11 03:02:56;;;;;;;;;;;16.40;99.90;;;;;;5016420;28;19943;-94
2023/10/11 03:05:27;;;;;;;;;;;16.40;99.90;;;;;;5005986;28;19918;-92
2023/10/11 03:07:53;;;;;;;;;;;16.40;99.90;;;;;;5016687;28;20015;-94
2023/10/11 03:10:19;;;;;;;;;;;16.40;99.90;;;;;;5019054;28;20272;-92
2023/10/11 03:12:50;;;;;;;;;;;16.40;99.90;;;;;;5000256;28;19925;-93
2023/10/11 03:15:19;;;;;;;;;;;16.40;99.90;;;;;;5011049;28;19960;-93
2023/10/11 03:17:52;;;;;;;;;;;16.30;99.90;;;;;;4996094;28;19963;-96
2023/10/11 03:20:36;;;;;;;;;;;16.30;99.90;;;;;;5000124;28;20452;-92
2023/10/11 03:23:05;;;;;;;;;;;16.30;99.90;;;;;;5012716;28;20004;-94
2023/10/11 03:25:32;;;;;;;;;;;16.40;99.90;;;;;;5016440;28;20019;-90
2023/10/11 03:27:57;;;;;;;;;;;16.30;99.90;;;;;;5003550;28;20013;-92
2023/10/11 03:30:24;;;;;;;;;;;16.30;99.90;;;;;;5027422;28;19949;-88
2023/10/11 03:32:50;;;;;;;;;;;16.40;99.90;;;;;;5016802;28;20357;-96
2023/10/11 03:35:18;;;;;;;;;;;16.50;99.90;;;;;;5015438;28;20280;-94
2023/10/11 03:37:59;;;;;;;;;;;16.30;99.90;;;;;;5024021;28;19924;-93
2023/10/11 03:40:34;;;;;;;;;;;16.40;99.90;;;;;;5007677;28;19917;-95
2023/10/11 03:43:03;;;;;;;;;;;16.40;99.90;;;;;;5019691;28;19921;-92
2023/10/11 03:45:29;;;;;;;;;;;16.40;99.90;;;;;;5017615;28;19921;-95
2023/10/11 03:47:58;;;;;;;;;;;16.40;99.90;;;;;;5000011;28;19936;-94
2023/10/11 03:50:32;;;;;;;;;;;16.40;99.90;;;;;;5018166;28;19975;-95
2023/10/11 03:53:06;;;;;;;;;;;16.40;99.90;;;;;;5018300;28;19967;-96
2023/10/11 03:55:44;;;;;;;;;;;16.40;99.90;;;;;;5004714;28;20272;-93
2023/10/11 03:58:10;;;;;;;;;;;16.40;99.90;;;;;;5007643;28;19939;-92
2023/10/11 04:00:46;;;;;;;;;;;16.40;99.90;;;;;;5000275;28;19940;-96
2023/10/11 04:03:14;;;;;;;;;;;16.40;99.90;;;;;;5004041;28;20275;-92
2023/10/11 04:05:40;;;;;;;;;;;16.40;99.90;;;;;;5003282;28;19917;-94
2023/10/11 04:08:07;;;;;;;;;;;16.40;99.90;;;;;;5018448;28;19917;-92
2023/10/11 04:10:43;;;;;;;;;;;16.40;99.90;;;;;;5027681;28;19917;-92
2023/10/11 04:13:14;;;;;;;;;;;16.30;99.90;;;;;;5007062;28;19917;-92
2023/10/11 04:15:40;;;;;;;;;;;16.30;99.90;;;;;;5002319;28;20020;-89
2023/10/11 04:18:20;;;;;;;;;;;16.30;99.90;;;;;;5001741;28;19916;-92
2023/10/11 04:20:59;;;;;;;;;;;16.30;99.90;;;;;;5017641;28;19917;-94
2023/10/11 04:23:27;;;;;;;;;;;16.30;99.90;;;;;;5018241;28;19917;-91
2023/10/11 04:25:55;;;;;;;;;;;16.30;99.90;;;;;;5014855;28;19918;-92
2023/10/11 04:28:23;;;;;;;;;;;16.30;99.90;;;;;;4992094;28;19972;-93
2023/10/11 04:30:53;;;;;;;;;;;16.30;99.90;;;;;;4984716;28;19929;-94
2023/10/11 04:33:37;;;;;;;;;;;16.30;99.90;;;;;;5008551;28;19960;-94
2023/10/11 04:36:02;;;;;;;;;;;16.30;99.90;;;;;;5003343;28;19921;-94
2023/10/11 04:38:32;;;;;;;;;;;16.30;99.90;;;;;;5017807;28;19917;-93
2023/10/11 04:41:02;;;;;;;;;;;16.30;99.90;;;;;;5002203;28;19917;-94
2023/10/11 04:43:29;;;;;;;;;;;16.30;99.90;;;;;;5002316;28;19960;-93
2023/10/11 04:45:59;;;;;;;;;;;16.30;99.90;;;;;;5011404;28;19924;-96
2023/10/11 04:48:29;;;;;;;;;;;16.20;99.90;;;;;;4997526;28;20276;-92
2023/10/11 04:51:21;;;;;;;;;;;16.20;99.90;;;;;;5017320;28;19917;-94
2023/10/11 04:53:56;;;;;;;;;;;16.20;99.90;;;;;;5032995;28;19924;-94
2023/10/11 04:59:11;;;;;;;;;;;16.30;99.90;;;;;;5034006;28;20011;-94
2023/10/11 05:04:16;;;;;;;;;;;16.20;99.90;;;;;;5034194;28;20348;-94
2023/10/11 05:06:43;;;;;;;;;;;16.20;99.90;;;;;;5011275;28;19917;-95
2023/10/11 05:09:14;;;;;;;;;;;16.20;99.90;;;;;;4997837;28;19921;-94
2023/10/11 05:11:50;;;;;;;;;;;16.20;99.90;;;;;;5016780;28;19921;-93
2023/10/11 05:14:40;;;;;;;;;;;16.20;99.90;;;;;;5016033;28;19922;-93
2023/10/11 05:22:48;;;;;;;;;;;16.20;99.90;;;;;;5033763;28;19972;-93
2023/10/11 05:27:56;;;;;;;;;;;16.20;99.90;;;;;;5041102;28;19917;-87
2023/10/11 05:52:33;;;;;;;;;;;16.40;99.90;;;;;;5015740;28;20285;-90
2023/10/11 05:54:59;;;;;;;;;;;16.40;99.90;;;;;;5017021;28;19972;-93
2023/10/11 05:57:27;;;;;;;;;;;16.30;99.90;;;;;;4998816;28;19917;-91
2023/10/11 05:59:53;;;;;;;;;;;16.40;99.90;;;;;;5014949;28;19917;-91
2023/10/11 06:02:19;;;;;;;;;;;16.40;99.90;;;;;;4997044;28;19932;-90
2023/10/11 06:04:45;;;;;;;;;;;16.50;99.90;;;;;;5007218;28;20358;-91
2023/10/11 06:07:13;;;;;;;;;;;16.50;99.90;;;;;;5032609;28;20375;-92
2023/10/11 06:09:43;;;;;;;;;;;16.50;99.90;;;;;;5014705;28;20353;-92
2023/10/11 06:12:22;;;;;;;;;;;16.50;99.90;;;;;;5023934;28;20583;-90
2023/10/11 06:14:50;;;;;;;;;;;16.50;99.90;;;;;;5013828;28;19960;-91
2023/10/11 06:17:16;;;;;;;;;;;16.60;99.90;;;;;;5015199;28;20483;-92
2023/10/11 06:19:50;;;;;;;;;;;16.60;99.90;;;;;;5017519;28;19917;-91
2023/10/11 06:22:16;;;;;;;;;;;16.40;99.90;;;;;;5002303;28;19918;-92
2023/10/11 06:24:44;;;;;;;;;;;16.60;99.90;;;;;;4995526;28;19917;-89
2023/10/11 06:29:53;;;;;;;;;;;16.60;99.90;;;;;;5021235;28;19917;-90
2023/10/11 06:32:21;;;;;;;;;;;16.60;99.90;;;;;;5014984;28;20426;-90
2023/10/11 06:34:47;;;;;;;;;;;16.60;99.90;;;;;;5014540;28;20602;-90
2023/10/11 06:37:17;;;;;;;;;;;16.70;99.90;;;;;;4993118;28;19925;-91
2023/10/11 06:44:41;;;;;;;;;;;16.70;99.90;;;;;;5019828;28;19921;-89
2023/10/11 06:47:10;;;;;;;;;;;16.80;99.90;;;;;;5016608;28;20016;-93
2023/10/11 06:49:47;;;;;;;;;;;16.70;99.90;;;;;;5018986;28;20376;-91
2023/10/11 06:52:17;;;;;;;;;;;16.70;99.90;;;;;;5003537;28;19923;-91
2023/10/11 06:54:47;;;;;;;;;;;16.70;99.90;;;;;;5031587;28;19921;-90
2023/10/11 06:57:19;;;;;;;;;;;16.80;99.90;;;;;;5018458;28;20370;-87
2023/10/11 06:59:49;;;;;;;;;;;16.80;99.90;;;;;;5018867;28;20017;-89
2023/10/11 07:02:18;;;;;;;;;;;16.80;99.90;;;;;;5018791;28;19916;-88
2023/10/11 07:04:53;;;;;;;;;;;16.70;99.90;;;;;;5015599;28;19924;-94
2023/10/11 07:07:18;;;;;;;;;;;16.80;99.90;;;;;;5010904;28;19917;-91
2023/10/11 07:09:56;;;;;;;;;;;16.80;99.90;;;;;;5011111;28;19941;-91
2023/10/11 07:12:39;;;;;;;;;;;16.90;99.90;;;;;;5001123;28;19940;-92
2023/10/11 07:15:07;;;;;;;;;;;16.90;99.90;;;;;;5007093;28;19921;-90
2023/10/11 07:17:42;;;;;;;;;;;16.90;99.90;;;;;;5017292;28;20364;-94
2023/10/11 07:20:29;;;;;;;;;;;16.90;99.90;;;;;;5004073;28;19917;-89
2023/10/11 07:22:54;;;;;;;;;;;17.00;99.90;;;;;;5021218;28;19917;-89
2023/10/11 07:25:36;;;;;;;;;;;17.00;99.90;;;;;;5001034;28;19928;-92
2023/10/11 07:28:03;;;;;;;;;;;17.00;99.90;;;;;;5019332;28;19924;-90
2023/10/11 07:30:37;;;;;;;;;;;17.10;99.90;;;;;;5001996;28;20462;-91
2023/10/11 07:33:05;;;;;;;;;;;17.10;99.90;;;;;;4997082;28;20349;-91
2023/10/11 07:35:33;;;;;;;;;;;17.20;99.90;;;;;;4999471;28;20351;-92
2023/10/11 07:38:00;;;;;;;;;;;17.20;99.90;;;;;;4995500;28;20006;-92
2023/10/11 07:40:34;;;;;;;;;;;17.20;99.90;;;;;;4998120;28;19924;-90
2023/10/11 07:43:00;;;;;;;;;;;17.20;99.90;;;;;;4999713;28;19928;-90
2023/10/11 07:45:27;;;;;;;;;;;17.20;99.90;;;;;;5034109;28;20442;-94
2023/10/11 07:47:52;;;;;;;;;;;17.20;99.90;;;;;;5000359;28;19939;-92
2023/10/11 07:50:22;;;;;;;;;;;17.30;99.90;;;;;;5013676;28;19917;-92
2023/10/11 07:52:48;;;;;;;;;;;17.40;99.90;;;;;;4999004;28;19924;-91
2023/10/11 07:55:14;;;;;;;;;;;17.40;99.90;;;;;;5017236;28;20291;-93
2023/10/11 07:57:44;;;;;;;;;;;17.40;99.90;;;;;;5004070;28;20011;-90
2023/10/11 08:00:17;;;;;;;;;;;17.40;99.90;;;;;;5005190;28;19921;-90
2023/10/11 08:02:56;;;;;;;;;;;17.50;99.90;;;;;;5017826;28;19917;-90
2023/10/11 08:05:25;;;;;;;;;;;17.50;99.90;;;;;;5016284;28;19971;-89
2023/10/11 08:07:52;;;;;;;;;;;17.50;99.90;;;;;;5017110;28;19979;-95
2023/10/11 08:10:29;;;;;;;;;;;17.50;99.90;;;;;;5001358;28;19917;-89
2023/10/11 08:12:57;;;;;;;;;;;17.50;99.90;;;;;;5034021;28;19927;-93
2023/10/11 08:15:25;;;;;;;;;;;17.60;99.90;;;;;;5016887;28;19991;-91
2023/10/11 08:17:53;;;;;;;;;;;17.50;99.90;;;;;;5017202;28;19920;-94
2023/10/11 08:20:19;;;;;;;;;;;17.50;99.90;;;;;;5015592;28;20334;-91
2023/10/11 08:22:47;;;;;;;;;;;17.50;99.90;;;;;;4998244;28;19924;-90
2023/10/11 08:25:13;;;;;;;;;;;17.50;99.90;;;;;;4993813;28;19917;-95
2023/10/11 08:27:51;;;;;;;;;;;17.50;99.90;;;;;;5016353;28;20368;-89
2023/10/11 08:30:18;;;;;;;;;;;17.50;99.90;;;;;;4998233;28;20361;-90
2023/10/11 08:32:45;;;;;;;;;;;17.50;99.90;;;;;;5011860;28;20066;-92
2023/10/11 08:35:16;;;;;;;;;;;17.50;99.90;;;;;;5015392;28;20446;-93
2023/10/11 08:37:42;;;;;;;;;;;17.50;99.90;;;;;;4993319;28;19917;-95
2023/10/11 08:40:23;;;;;;;;;;;17.60;99.90;;;;;;5014411;28;19936;-93
2023/10/11 08:42:50;;;;;;;;;;;17.60;99.90;;;;;;4983816;28;19924;-95
2023/10/11 08:45:33;;;;;;;;;;;17.60;99.90;;;;;;5011496;28;19917;-92
2023/10/11 08:48:06;;;;;;;;;;;17.60;99.90;;;;;;5004272;28;19917;-93
2023/10/11 08:50:35;;;;;;;;;;;17.60;99.90;;;;;;5013971;28;19921;-93
2023/10/11 08:53:08;;;;;;;;;;;17.70;99.90;;;;;;5009420;28;19917;-88
2023/10/11 08:55:39;;;;;;;;;;;17.70;99.90;;;;;;4998592;28;19928;-92
2023/10/11 08:58:23;;;;;;;;;;;17.60;99.90;;;;;;4987955;28;19921;-93
2023/10/11 09:00:54;;;;;;;;;;;18.00;99.90;;;;;;5008045;28;20352;-93
2023/10/11 09:03:23;;;;;;;;;;;17.70;99.90;;;;;;5013438;28;19925;-93
2023/10/11 09:05:58;;;;;;;;;;;17.60;99.90;;;;;;4997832;28;20000;-94
2023/10/11 09:08:35;;;;;;;;;;;18.40;99.90;;;;;;5033257;28;20018;-93
2023/10/11 09:11:11;;;;;;;;;;;18.60;99.90;;;;;;5013017;28;19960;-93
2023/10/11 09:13:38;;;;;;;;;;;17.90;99.90;;;;;;5007897;28;19924;-94
2023/10/11 09:16:13;;;;;;;;;;;17.70;99.90;;;;;;5000400;28;20372;-94
2023/10/11 09:18:39;;;;;;;;;;;18.00;99.90;;;;;;5010969;28;19995;-91
2023/10/11 09:21:17;;;;;;;;;;;16.20;99.90;;;;;;5001210;28;20441;-95
2023/10/11 09:23:47;;;;;;;;;;;17.70;99.90;;;;;;5020882;28;19920;-92
2023/10/11 09:26:34;;;;;;;;;;;17.60;99.90;;;;;;5021085;28;19923;-92
2023/10/11 09:29:02;;;;;;;;;;;17.70;99.90;;;;;;5031999;28;19921;-92
2023/10/11 09:31:31;;;;;;;;;;;19.30;99.90;;;;;;5012493;28;20004;-93
2023/10/11 09:34:02;;;;;;;;;;;17.50;99.90;;;;;;5023574;28;19923;-93
2023/10/11 09:36:31;;;;;;;;;;;18.20;99.90;;;;;;5000082;28;19960;-94
2023/10/11 09:38:57;;;;;;;;;;;18.10;99.90;;;;;;5011046;28;19924;-95
2023/10/11 09:41:24;;;;;;;;;;;18.50;99.90;;;;;;4999711;28;19923;-92
2023/10/11 09:43:54;;;;;;;;;;;18.70;99.90;;;;;;5031291;28;19952;-90
2023/10/11 09:46:20;;;;;;;;;;;19.00;99.90;;;;;;5015870;28;19924;-94
2023/10/11 09:48:48;;;;;;;;;;;17.90;99.90;;;;;;5014360;28;19929;-93
2023/10/11 09:51:17;;;;;;;;;;;17.90;99.90;;;;;;5010445;28;20349;-93
2023/10/11 09:53:49;;;;;;;;;;;17.90;99.90;;;;;;5014250;28;20630;-94
2023/10/11 09:56:30;;;;;;;;;;;17.90;99.90;;;;;;5007721;28;19921;-93
2023/10/11 09:59:05;;;;;;;;;;;17.70;99.90;;;;;;5009491;28;19917;-96
2023/10/11 10:01:55;;;;;;;;;;;17.90;99.90;;;;;;4996630;28;19921;-91
2023/10/11 10:04:40;;;;;;;;;;;17.90;99.90;;;;;;4997853;28;20332;-95
2023/10/11 10:07:20;;;;;;;;;;;17.90;99.90;;;;;;5016360;28;19971;-90
2023/10/11 10:09:52;;;;;;;;;;;17.90;99.90;;;;;;5011240;28;19917;-93
2023/10/11 10:12:22;;;;;;;;;;;18.00;99.90;;;;;;5016170;28;19921;-90
2023/10/11 10:14:50;;;;;;;;;;;18.10;99.90;;;;;;5014614;28;19928;-94
2023/10/11 10:17:16;;;;;;;;;;;18.10;99.90;;;;;;5021525;28;19963;-94
2023/10/11 10:19:45;;;;;;;;;;;17.80;99.90;;;;;;5018615;28;19924;-90
2023/10/11 10:22:14;;;;;;;;;;;18.30;99.90;;;;;;5017955;28;19921;-91
2023/10/11 10:24:41;;;;;;;;;;;18.40;99.90;;;;;;5016599;28;20407;-92
2023/10/11 10:27:31;;;;;;;;;;;18.40;99.90;;;;;;5036449;28;19921;-92
2023/10/11 10:29:59;;;;;;;;;;;18.50;99.90;;;;;;5012309;28;19960;-94
2023/10/11 10:32:26;;;;;;;;;;;17.80;99.90;;;;;;5028522;28;20375;-92
2023/10/11 10:35:11;;;;;;;;;;;18.50;99.90;;;;;;5017954;28;20519;-90
2023/10/11 10:37:46;;;;;;;;;;;18.10;99.90;;;;;;5015710;28;19928;-94
2023/10/11 10:40:24;;;;;;;;;;;18.60;99.90;;;;;;5016492;28;20020;-93
2023/10/11 10:43:19;;;;;;;;;;;18.60;99.90;;;;;;5013287;28;19964;-91
2023/10/11 10:45:49;;;;;;;;;;;18.70;99.90;;;;;;5017043;28;19917;-91
2023/10/11 10:48:15;;;;;;;;;;;;;;;;;;5014231;28;20385;-93
2023/10/11 10:50:50;;;;;;;;;;;19.10;99.90;;;;;;5015175;28;20372;-90
2023/10/11 10:56:36;;;;;;;;;;;19.50;99.90;;;;;;4953875;28;20566;-94
2023/10/11 10:59:05;;;;;;;;;;;19.50;99.90;;;;;;5002009;28;20004;-92
2023/10/11 11:01:34;;;;;;;;;;;19.60;99.90;;;;;;5015080;28;20430;-93
2023/10/11 11:04:06;;;;;;;;;;;19.60;99.90;;;;;;4996717;28;19921;-91
2023/10/11 11:06:38;;;;;;;;;;;19.70;99.90;;;;;;5020809;28;19917;-91
2023/10/11 11:09:05;;;;;;;;;;;19.70;99.90;;;;;;5030707;28;19991;-95
2023/10/11 11:11:37;;;;;;;;;;;19.70;99.90;;;;;;5018685;28;19921;-93
2023/10/11 11:14:13;;;;;;;;;;;19.60;99.90;;;;;;5018800;28;19917;-91
2023/10/11 11:16:40;;;;;;;;;;;19.60;99.90;;;;;;5016315;28;19923;-93
2023/10/11 11:19:16;;;;;;;;;;;19.60;99.90;;;;;;5013773;28;19921;-94
2023/10/11 11:21:45;;;;;;;;;;;19.60;99.90;;;;;;5027481;28;19966;-94
2023/10/11 11:24:15;;;;;;;;;;;19.50;99.90;;;;;;5012697;28;19921;-94
2023/10/11 11:26:41;;;;;;;;;;;19.50;99.90;;;;;;5019657;28;19921;-93
2023/10/11 11:29:11;;;;;;;;;;;19.40;99.90;;;;;;5001040;28;20365;-96
2023/10/11 11:31:53;;;;;;;;;;;19.40;99.90;;;;;;5026581;28;19921;-92
2023/10/11 11:34:34;;;;;;;;;;;19.30;99.90;;;;;;5011786;28;19929;-94
2023/10/11 11:37:05;;;;;;;;;;;19.20;99.90;;;;;;5021538;28;19917;-91
2023/10/11 11:39:39;;;;;;;;;;;19.20;99.90;;;;;;5011115;28;19921;-95
2023/10/11 11:42:20;;;;;;;;;;;19.20;99.90;;;;;;5015322;28;19968;-95
2023/10/11 11:44:55;;;;;;;;;;;19.10;99.90;;;;;;5019493;28;19921;-92
2023/10/11 11:47:21;;;;;;;;;;;19.10;99.90;;;;;;5017706;28;19917;-93
2023/10/11 11:49:47;;;;;;;;;;;19.10;99.90;;;;;;5013755;28;20356;-89
2023/10/11 11:52:16;;;;;;;;;;;19.10;99.90;;;;;;5033525;28;19921;-94
2023/10/11 11:54:43;;;;;;;;;;;19.20;99.90;;;;;;5013165;28;19921;-92
2023/10/11 11:57:09;;;;;;;;;;;19.20;99.90;;;;;;5015488;28;19916;-91
2023/10/11 11:59:35;;;;;;;;;;;19.20;99.90;;;;;;5017209;28;19994;-92
2023/10/11 12:02:00;;;;;;;;;;;19.30;99.90;;;;;;5021226;28;19920;-91
2023/10/11 12:04:29;;;;;;;;;;;19.40;99.90;;;;;;5000605;28;19921;-92
2023/10/11 12:06:59;;;;;;;;;;;19.40;99.90;;;;;;5012010;28;19924;-91
2023/10/11 12:09:31;;;;;;;;;;;19.30;99.90;;;;;;5016449;28;19917;-89
2023/10/11 12:12:02;;;;;;;;;;;19.40;99.90;;;;;;5000574;28;19987;-91
2023/10/11 12:14:28;;;;;;;;;;;19.40;99.90;;;;;;5016711;28;19921;-91
2023/10/11 12:16:55;;;;;;;;;;;19.30;99.90;;;;;;5021947;28;19970;-94
2023/10/11 12:19:21;;;;;;;;;;;19.40;99.90;;;;;;5016813;28;19943;-96
2023/10/11 12:21:47;;;;;;;;;;;19.40;99.90;;;;;;5026257;28;19916;-90
2023/10/11 12:24:13;;;;;;;;;;;19.40;99.90;;;;;;5016853;28;20450;-90
2023/10/11 12:26:41;;;;;;;;;;;19.40;99.90;;;;;;5014618;28;19971;-93
2023/10/11 12:29:12;;;;;;;;;;;19.40;99.90;;;;;;5017090;28;19917;-91
2023/10/11 12:31:39;;;;;;;;;;;19.40;99.90;;;;;;5032834;28;19921;-93
2023/10/11 12:34:11;;;;;;;;;;;19.50;99.90;;;;;;5024388;28;19917;-92
2023/10/11 12:36:38;;;;;;;;;;;19.40;99.90;;;;;;5013325;28;20374;-95
2023/10/11 12:39:05;;;;;;;;;;;19.40;99.90;;;;;;4999293;28;19946;-94
2023/10/11 12:41:31;;;;;;;;;;;19.30;99.90;;;;;;5000148;28;19925;-92
2023/10/11 12:44:00;;;;;;;;;;;19.20;99.90;;;;;;4997028;28;19917;-92
2023/10/11 12:46:27;;;;;;;;;;;19.20;99.90;;;;;;5015977;28;20288;-92
2023/10/11 12:48:56;;;;;;;;;;;19.10;99.90;;;;;;4998549;28;19920;-92
2023/10/11 12:51:23;;;;;;;;;;;19.00;99.90;;;;;;5016287;28;19920;-92
2023/10/11 12:53:54;;;;;;;;;;;20.30;99.90;;;;;;5016243;28;19943;-91
2023/10/11 12:56:21;;;;;;;;;;;19.00;99.90;;;;;;5015807;28;19924;-91
2023/10/11 12:58:50;;;;;;;;;;;19.10;99.90;;;;;;5015252;28;19917;-90
2023/10/11 13:01:25;;;;;;;;;;;19.10;99.90;;;;;;5000560;28;19927;-94
2023/10/11 13:04:05;;;;;;;;;;;19.10;99.90;;;;;;5009874;28;20518;-92
2023/10/11 13:06:32;;;;;;;;;;;19.10;99.90;;;;;;5006644;28;19921;-91
2023/10/11 13:08:59;;;;;;;;;;;19.10;99.90;;;;;;4992597;28;20348;-93
2023/10/11 13:11:24;;;;;;;;;;;19.10;99.90;;;;;;5010517;28;19924;-90
2023/10/11 13:13:50;;;;;;;;;;;19.10;99.90;;;;;;5019196;28;19929;-90
2023/10/11 13:16:26;;;;;;;;;;;19.10;99.90;;;;;;5033897;28;19940;-92
2023/10/11 13:18:52;;;;;;;;;;;19.10;99.90;;;;;;4995159;28;19925;-93
2023/10/11 13:21:20;;;;;;;;;;;19.10;99.90;;;;;;4990619;28;20429;-92
2023/10/11 13:23:45;;;;;;;;;;;19.10;99.90;;;;;;5013063;28;19921;-93
2023/10/11 13:26:18;;;;;;;;;;;19.10;99.90;;;;;;5009500;28;19944;-92
2023/10/11 13:28:48;;;;;;;;;;;19.10;99.90;;;;;;5011669;28;19921;-93
2023/10/11 13:31:15;;;;;;;;;;;18.90;99.90;;;;;;4997963;28;19928;-94
2023/10/11 13:33:42;;;;;;;;;;;18.90;99.90;;;;;;4999611;28;19921;-95
2023/10/11 13:36:08;;;;;;;;;;;18.90;99.90;;;;;;4996578;28;19921;-90
2023/10/11 13:38:34;;;;;;;;;;;18.90;99.90;;;;;;4998602;28;20341;-91
2023/10/11 13:41:00;;;;;;;;;;;18.90;99.90;;;;;;5016381;28;19939;-92
2023/10/11 13:43:26;;;;;;;;;;;18.90;99.90;;;;;;4995383;28;19996;-91
2023/10/11 13:46:06;;;;;;;;;;;18.40;99.90;;;;;;5015652;28;20518;-91
2023/10/11 13:48:42;;;;;;;;;;;18.80;99.90;;;;;;5012599;28;19945;-90
2023/10/11 13:51:16;;;;;;;;;;;18.80;99.90;;;;;;5014215;28;20364;-93
2023/10/11 13:53:42;;;;;;;;;;;18.80;99.90;;;;;;5010226;28;20543;-92
2023/10/11 13:56:11;;;;;;;;;;;18.70;99.90;;;;;;4998353;28;19921;-92
2023/10/11 13:58:37;;;;;;;;;;;18.80;99.90;;;;;;5031935;28;19921;-93
2023/10/11 14:01:13;;;;;;;;;;;18.80;99.90;;;;;;4999617;28;19917;-93
2023/10/11 14:03:45;;;;;;;;;;;18.90;99.90;;;;;;5006688;28;19924;-95
2023/10/11 14:06:28;;;;;;;;;;;18.90;99.90;;;;;;5010792;28;19925;-90
2023/10/11 14:08:54;;;;;;;;;;;19.00;99.90;;;;;;5008875;28;19924;-89
2023/10/11 14:11:19;;;;;;;;;;;19.00;99.90;;;;;;4991114;28;19921;-92
2023/10/11 14:13:49;;;;;;;;;;;18.60;99.90;;;;;;4997768;28;19917;-92
2023/10/11 14:16:21;;;;;;;;;;;19.00;99.90;;;;;;5009520;28;19931;-91
2023/10/11 14:18:49;;;;;;;;;;;19.00;99.90;;;;;;5007484;28;19924;-92
2023/10/11 14:21:19;;;;;;;;;;;19.00;99.90;;;;;;5011677;28;19924;-90
2023/10/11 14:23:46;;;;;;;;;;;19.00;99.90;;;;;;4995721;28;19925;-90
2023/10/11 14:26:13;;;;;;;;;;;19.00;99.90;;;;;;5013718;28;19975;-91
2023/10/11 14:28:39;;;;;;;;;;;19.00;99.90;;;;;;5029846;28;19917;-88
2023/10/11 14:31:04;;;;;;;;;;;19.00;99.90;;;;;;5024601;28;20278;-94
2023/10/11 14:33:33;;;;;;;;;;;19.00;99.90;;;;;;5020295;28;19921;-94
2023/10/11 14:35:58;;;;;;;;;;;19.00;99.90;;;;;;5012998;28;19921;-91
2023/10/11 14:38:24;;;;;;;;;;;19.10;99.90;;;;;;5005748;28;19940;-94
2023/10/11 14:40:50;;;;;;;;;;;19.10;99.90;;;;;;4997879;28;19921;-91
2023/10/11 14:43:16;;;;;;;;;;;18.90;99.90;;;;;;5011836;28;19924;-89
2023/10/11 14:45:44;;;;;;;;;;;19.00;99.90;;;;;;4996632;28;19940;-91
2023/10/11 14:48:10;;;;;;;;;;;19.00;99.90;;;;;;5015112;28;20364;-91
2023/10/11 14:50:37;;;;;;;;;;;18.50;99.90;;;;;;5008701;28;19963;-91
2023/10/11 14:53:02;;;;;;;;;;;19.00;99.90;;;;;;4997377;28;19917;-90
2023/10/11 14:55:35;;;;;;;;;;;19.00;99.90;;;;;;5011621;28;19929;-89
2023/10/11 14:58:00;;;;;;;;;;;19.00;99.90;;;;;;5000587;28;20063;-93
2023/10/11 15:00:33;;;;;;;;;;;19.00;99.90;;;;;;5008763;28;20356;-93
2023/10/11 15:02:58;;;;;;;;;;;18.50;99.90;;;;;;5002309;28;20023;-91
2023/10/11 15:05:29;;;;;;;;;;;18.90;99.90;;;;;;5004425;28;19992;-92
2023/10/11 15:07:54;;;;;;;;;;;18.90;99.90;;;;;;5010630;28;20426;-92
2023/10/11 15:10:23;;;;;;;;;;;18.90;99.90;;;;;;5018115;28;19925;-90
2023/10/11 15:12:49;;;;;;;;;;;18.90;99.90;;;;;;5012612;28;19916;-91
2023/10/11 15:15:19;;;;;;;;;;;18.80;99.90;;;;;;5016066;28;19943;-93
2023/10/11 15:17:50;;;;;;;;;;;18.80;99.90;;;;;;5034598;28;19917;-92
2023/10/11 15:20:16;;;;;;;;;;;18.70;99.90;;;;;;5018672;28;19971;-91
2023/10/11 15:22:43;;;;;;;;;;;18.70;99.90;;;;;;5022778;28;19921;-93